createdAt,value
2023-05-09T00:02:36.037Z,35.92
2023-05-09T00:05:38.848Z,35.75
2023-05-09T00:08:41.538Z,35.62
2023-05-09T00:11:43.961Z,35.83
2023-05-09T00:14:48.216Z,35.74
2023-05-09T00:17:50.632Z,36.05
2023-05-09T00:20:52.935Z,36.05
2023-05-09T00:23:55.696Z,35.96
2023-05-09T00:26:57.806Z,36.48
2023-05-09T00:29:59.955Z,35.97
2023-05-09T00:33:02.272Z,36.34
2023-05-09T00:36:04.754Z,36.28
2023-05-09T00:39:06.868Z,36.15
2023-05-09T00:42:08.965Z,36.34
2023-05-09T00:45:11.611Z,36.20
2023-05-09T00:48:15.246Z,36.57
2023-05-09T00:51:17.717Z,36.85
2023-05-09T00:54:19.854Z,36.53
2023-05-09T00:57:22.712Z,36.76
2023-05-09T01:00:25.426Z,36.38
2023-05-09T01:03:28.052Z,36.95
2023-05-09T01:07:04.612Z,36.62
2023-05-09T01:10:09.641Z,36.97
2023-05-09T01:13:23.742Z,36.77
2023-05-09T01:16:39.871Z,36.74
2023-05-09T01:19:58.504Z,37.26
2023-05-09T01:23:15.932Z,37.06
2023-05-09T01:26:26.168Z,37.23
2023-05-09T01:29:36.852Z,37.40
2023-05-09T01:32:39.491Z,36.90
2023-05-09T01:35:42.827Z,36.87
2023-05-09T01:38:49.020Z,36.99
2023-05-09T01:41:53.418Z,37.61
2023-05-09T01:44:56.236Z,37.31
2023-05-09T01:47:58.921Z,36.72
2023-05-09T01:51:01.595Z,36.93
2023-05-09T01:54:04.114Z,37.56
2023-05-09T01:57:07.804Z,37.47
2023-05-09T02:00:13.245Z,37.49
2023-05-09T02:03:15.678Z,37.47
2023-05-09T02:06:20.846Z,37.43
2023-05-09T02:09:23.080Z,37.62
2023-05-09T02:12:25.651Z,37.85
2023-05-09T02:15:29.280Z,37.29
2023-05-09T02:18:32.726Z,37.71
2023-05-09T02:21:35.821Z,37.24
2023-05-09T02:24:38.082Z,37.26
2023-05-09T02:27:40.509Z,37.66
2023-05-09T02:30:44.477Z,37.46
2023-05-09T02:33:47.936Z,37.69
2023-05-09T02:36:50.321Z,37.61
2023-05-09T02:39:52.503Z,38.01
2023-05-09T02:42:54.959Z,37.57
2023-05-09T02:45:57.110Z,37.87
2023-05-09T02:48:59.374Z,37.78
2023-05-09T02:52:01.852Z,37.71
2023-05-09T02:55:04.944Z,38.05
2023-05-09T02:58:14.754Z,38.47
2023-05-09T03:01:18.849Z,37.74
2023-05-09T03:04:21.044Z,38.07
2023-05-09T03:07:23.332Z,38.33
2023-05-09T03:10:25.575Z,38.38
2023-05-09T03:13:27.926Z,37.84
2023-05-09T03:16:32.456Z,37.99
2023-05-09T03:19:35.283Z,37.92
2023-05-09T03:22:37.625Z,38.02
2023-05-09T03:25:42.365Z,38.05
2023-05-09T03:28:44.556Z,38.24
2023-05-09T03:31:47.007Z,38.09
2023-05-09T03:34:49.498Z,37.84
2023-05-09T03:37:51.976Z,38.01
2023-05-09T03:40:54.351Z,36.99
2023-05-09T03:43:57.525Z,36.11
2023-05-09T03:46:59.884Z,35.48
2023-05-09T03:50:05.719Z,34.75
2023-05-09T03:53:09.656Z,34.63
2023-05-09T03:56:15.826Z,33.89
2023-05-09T03:59:24.191Z,33.48
2023-05-09T04:02:26.717Z,33.06
2023-05-09T04:05:29.232Z,32.90
2023-05-09T04:08:32.562Z,32.30
2023-05-09T04:11:36.100Z,32.40
2023-05-09T04:14:41.031Z,32.74
2023-05-09T04:17:43.987Z,33.32
2023-05-09T04:20:46.476Z,33.98
2023-05-09T04:27:16.781Z,31.83
2023-05-09T04:30:19.520Z,32.02
2023-05-09T04:33:24.168Z,31.82
2023-05-09T04:36:31.967Z,31.89
2023-05-09T04:39:34.392Z,32.09
2023-05-09T04:42:45.781Z,33.76
2023-05-09T04:45:48.317Z,34.22
2023-05-09T04:48:53.878Z,33.85
2023-05-09T04:51:56.224Z,34.15
2023-05-09T04:54:58.438Z,34.04
2023-05-09T04:58:04.099Z,34.36
2023-05-09T05:01:06.530Z,34.45
2023-05-09T05:04:08.915Z,34.44
2023-05-09T05:07:11.452Z,34.29
2023-05-09T05:10:14.363Z,34.80
2023-05-09T05:13:21.699Z,34.58
2023-05-09T05:16:28.315Z,34.46
2023-05-09T05:19:30.722Z,34.85
2023-05-09T05:22:33.521Z,35.03
2023-05-09T05:25:36.065Z,35.67
2023-05-09T05:28:38.617Z,35.50
2023-05-09T05:31:41.648Z,35.63
2023-05-09T05:34:43.997Z,35.63
2023-05-09T05:37:48.960Z,35.43
2023-05-09T05:40:52.155Z,34.96
2023-05-09T05:43:55.422Z,35.05
2023-05-09T05:46:57.735Z,35.25
2023-05-09T05:50:03.631Z,34.95
2023-05-09T05:53:06.864Z,35.15
2023-05-09T05:56:09.288Z,36.07
2023-05-09T05:59:13.435Z,35.96
2023-05-09T06:02:20.745Z,35.34
2023-05-09T06:05:23.928Z,35.10
2023-05-09T06:08:27.260Z,35.26
2023-05-09T06:11:29.495Z,34.96
2023-05-09T06:14:33.380Z,35.46
2023-05-09T06:17:36.313Z,34.55
2023-05-09T06:20:38.568Z,34.08
2023-05-09T06:23:47.597Z,33.75
2023-05-09T06:27:06.074Z,33.63
2023-05-09T06:30:23.775Z,33.63
2023-05-09T06:33:27.530Z,33.81
2023-05-09T06:36:31.107Z,33.76
2023-05-09T06:39:35.899Z,32.94
2023-05-09T06:42:40.543Z,33.80
2023-05-09T06:45:42.792Z,33.47
2023-05-09T06:48:45.317Z,33.52
2023-05-09T06:51:47.567Z,34.39
2023-05-09T06:54:49.806Z,33.29
2023-05-09T06:57:51.974Z,33.47
2023-05-09T07:00:54.285Z,33.69
2023-05-09T07:03:56.628Z,33.44
2023-05-09T07:07:00.448Z,33.07
2023-05-09T07:10:11.202Z,33.49
2023-05-09T07:13:14.559Z,33.81
2023-05-09T07:16:18.490Z,33.81
2023-05-09T07:19:20.766Z,33.65
2023-05-09T07:22:22.974Z,33.33
2023-05-09T07:25:25.240Z,33.87
2023-05-09T07:28:27.659Z,33.49
2023-05-09T07:31:30.147Z,33.65
2023-05-09T07:34:32.405Z,33.16
2023-05-09T07:37:35.033Z,32.72
2023-05-09T07:40:38.761Z,33.34
2023-05-09T07:43:40.946Z,32.80
2023-05-09T07:46:43.094Z,32.51
2023-05-09T07:49:50.397Z,33.09
2023-05-09T07:52:52.877Z,33.22
2023-05-09T07:55:55.185Z,33.08
2023-05-09T07:58:57.384Z,33.33
2023-05-09T08:02:03.108Z,32.96
2023-05-09T08:05:06.324Z,33.05
2023-05-09T08:08:08.548Z,32.66
2023-05-09T08:11:10.784Z,33.01
2023-05-09T08:14:14.428Z,33.50
2023-05-09T08:17:17.822Z,33.13
2023-05-09T08:20:20.009Z,33.68
2023-05-09T08:23:23.765Z,33.48
2023-05-09T08:26:27.222Z,33.31
2023-05-09T08:29:29.886Z,32.89
2023-05-09T08:32:32.257Z,33.00
2023-05-09T08:35:37.168Z,32.81
2023-05-09T08:38:40.501Z,32.83
2023-05-09T08:41:47.201Z,32.52
2023-05-09T08:44:49.480Z,32.19
2023-05-09T08:47:52.339Z,32.48
2023-05-09T08:50:56.042Z,32.36
2023-05-09T08:53:59.075Z,32.34
2023-05-09T08:57:01.273Z,32.18
2023-05-09T09:00:06.448Z,31.71
2023-05-09T09:03:10.286Z,32.07
2023-05-09T09:06:13.325Z,31.93
2023-05-09T09:09:16.840Z,32.05
2023-05-09T09:12:22.793Z,32.12
2023-05-09T09:15:26.551Z,32.06
2023-05-09T09:18:30.759Z,31.90
2023-05-09T09:21:33.640Z,31.89
2023-05-09T09:24:35.879Z,31.54
2023-05-09T09:27:38.070Z,31.61
2023-05-09T09:30:45.063Z,31.38
2023-05-09T09:33:48.014Z,31.26
2023-05-09T09:36:50.288Z,30.89
2023-05-09T09:39:58.620Z,31.56
2023-05-09T09:43:00.978Z,30.92
2023-05-09T09:46:04.881Z,30.59
2023-05-09T09:49:11.511Z,30.65
2023-05-09T09:52:22.869Z,31.02
2023-05-09T09:55:25.224Z,31.18
2023-05-09T09:58:27.341Z,30.04
2023-05-09T10:01:45.536Z,30.31
2023-05-09T10:04:48.964Z,29.97
2023-05-09T10:07:54.184Z,30.22
2023-05-09T10:10:58.376Z,30.07
2023-05-09T10:14:03.643Z,29.66
2023-05-09T10:17:06.155Z,29.68
2023-05-09T10:20:12.786Z,29.69
2023-05-09T10:23:16.231Z,29.75
2023-05-09T10:26:29.241Z,29.09
2023-05-09T10:29:35.516Z,28.52
2023-05-09T10:32:54.960Z,28.88
2023-05-09T10:35:58.510Z,29.10
2023-05-09T10:39:01.241Z,28.45
2023-05-09T10:42:03.794Z,28.63
2023-05-09T10:45:06.702Z,28.51
2023-05-09T10:48:09.280Z,28.05
2023-05-09T10:51:12.271Z,28.28
2023-05-09T10:54:16.335Z,28.40
2023-05-09T10:57:19.795Z,28.57
2023-05-09T11:00:25.406Z,29.19
2023-05-09T11:03:29.426Z,29.02
2023-05-09T11:06:46.277Z,29.11
2023-05-09T11:09:53.295Z,29.17
2023-05-09T11:12:58.074Z,30.17
2023-05-09T11:16:00.857Z,29.61
2023-05-09T11:19:03.294Z,29.95
2023-05-09T11:22:22.395Z,30.03
2023-05-09T11:25:29.155Z,30.03
2023-05-09T11:28:33.803Z,29.86
2023-05-09T11:31:37.138Z,29.96
2023-05-09T11:34:43.316Z,30.21
2023-05-09T11:38:05.591Z,29.64
2023-05-09T11:41:08.712Z,28.96
2023-05-09T11:44:18.073Z,28.42
2023-05-09T11:47:24.062Z,29.33
2023-05-09T11:50:26.703Z,28.82
2023-05-09T11:53:45.796Z,28.97
2023-05-09T11:56:49.320Z,28.51
2023-05-09T11:59:51.503Z,28.87
2023-05-09T12:02:53.982Z,28.57
2023-05-09T12:05:56.392Z,28.78
2023-05-09T12:08:58.657Z,28.94
2023-05-09T12:12:01.494Z,29.37
2023-05-09T12:15:06.992Z,28.70
2023-05-09T12:18:09.315Z,29.00
2023-05-09T12:21:12.237Z,29.35
2023-05-09T12:24:14.407Z,29.01
2023-05-09T12:27:18.735Z,29.71
2023-05-09T12:30:20.995Z,30.35
2023-05-09T12:33:23.692Z,29.91
2023-05-09T12:36:28.433Z,30.20
2023-05-09T12:39:30.626Z,30.48
2023-05-09T12:42:34.242Z,30.55
2023-05-09T12:45:38.737Z,30.37
2023-05-09T12:48:40.957Z,30.47
2023-05-09T12:51:50.087Z,30.06
2023-05-09T12:54:54.155Z,29.90
2023-05-09T12:58:01.848Z,29.97
2023-05-09T13:01:04.816Z,30.41
2023-05-09T13:04:07.594Z,30.32
2023-05-09T13:07:13.046Z,30.77
2023-05-09T13:10:19.261Z,30.80
2023-05-09T13:13:23.038Z,30.83
2023-05-09T13:16:25.529Z,31.11
2023-05-09T13:19:27.842Z,30.86
2023-05-09T13:22:30.030Z,30.88
2023-05-09T13:25:32.197Z,30.84
2023-05-09T13:28:34.359Z,31.08
2023-05-09T13:31:36.489Z,31.01
2023-05-09T13:34:38.757Z,31.24
2023-05-09T13:37:43.914Z,31.49
2023-05-09T13:40:46.351Z,30.70
2023-05-09T13:43:48.604Z,30.74
2023-05-09T13:46:50.893Z,30.55
2023-05-09T13:49:53.120Z,30.43
2023-05-09T13:52:55.396Z,30.88
2023-05-09T13:55:57.783Z,30.71
2023-05-09T13:59:00.040Z,30.54
2023-05-09T14:02:02.270Z,30.05
2023-05-09T14:05:05.099Z,29.83
2023-05-09T14:08:07.925Z,30.38
2023-05-09T14:11:10.214Z,30.16
2023-05-09T14:14:12.386Z,29.63
2023-05-09T14:17:14.592Z,29.28
2023-05-09T14:20:17.061Z,29.87
2023-05-09T14:23:19.352Z,30.48
2023-05-09T14:26:22.200Z,29.82
2023-05-09T14:32:28.754Z,30.10
2023-05-09T14:35:34.116Z,30.96
2023-05-09T14:38:36.941Z,30.69
2023-05-09T14:41:39.587Z,30.19
2023-05-09T14:44:42.071Z,30.05
2023-05-09T14:47:44.403Z,30.23
2023-05-09T14:50:46.744Z,30.38
2023-05-09T15:00:25.783Z,30.27
2023-05-09T15:03:28.957Z,30.57
2023-05-09T15:06:31.734Z,30.28
2023-05-09T15:09:33.980Z,30.20
2023-05-09T15:12:36.191Z,30.24
2023-05-09T15:18:55.551Z,30.11
2023-05-09T15:25:18.415Z,30.66
2023-05-09T15:31:36.916Z,30.27
2023-05-09T15:34:39.301Z,30.65
2023-05-09T15:44:14.969Z,30.26
2023-05-09T15:47:17.583Z,30.83
2023-05-09T15:50:19.694Z,30.40
2023-05-09T15:53:23.161Z,30.94
2023-05-09T15:56:25.736Z,30.06
2023-05-09T15:59:28.082Z,29.80
2023-05-09T16:02:30.380Z,30.38
2023-05-09T16:05:32.635Z,29.63
2023-05-09T16:08:34.792Z,30.10
2023-05-09T16:11:37.212Z,29.74
2023-05-09T16:14:39.544Z,30.03
2023-05-09T16:17:41.998Z,30.17
2023-05-09T16:20:44.418Z,30.28
2023-05-09T16:23:46.588Z,30.41
2023-05-09T16:26:48.807Z,29.70
2023-05-09T16:29:50.988Z,30.28
2023-05-09T16:32:53.268Z,29.56
2023-05-09T16:35:55.806Z,29.81
2023-05-09T16:38:58.192Z,29.21
2023-05-09T16:42:00.458Z,28.98
2023-05-09T16:45:02.591Z,29.84
2023-05-09T16:48:05.345Z,29.45
2023-05-09T16:51:07.623Z,29.74
2023-05-09T16:54:10.214Z,28.84
2023-05-09T16:57:13.310Z,29.06
2023-05-09T17:00:16.660Z,28.64
2023-05-09T17:03:19.091Z,28.80
2023-05-09T17:06:21.591Z,28.67
2023-05-09T17:09:24.443Z,28.57
2023-05-09T17:12:30.399Z,29.03
2023-05-09T17:15:34.233Z,29.00
2023-05-09T17:18:38.058Z,29.24
2023-05-09T17:21:46.805Z,29.00
2023-05-09T17:24:49.062Z,29.35
2023-05-09T17:27:51.272Z,29.71
2023-05-09T17:30:53.386Z,29.90
2023-05-09T17:33:55.969Z,29.99
2023-05-09T17:36:58.747Z,30.36
2023-05-09T17:40:01.182Z,30.81
2023-05-09T17:43:03.395Z,30.43
2023-05-09T17:46:05.629Z,31.06
2023-05-09T17:49:10.102Z,31.02
2023-05-09T17:52:12.508Z,30.91
2023-05-09T17:55:14.918Z,30.99
2023-05-09T17:58:17.179Z,30.90
2023-05-09T18:01:20.348Z,31.27
2023-05-09T18:04:22.616Z,31.59
2023-05-09T18:07:25.475Z,31.80
2023-05-09T18:10:30.264Z,31.49
2023-05-09T18:16:50.834Z,32.25
2023-05-09T18:19:52.971Z,32.21
2023-05-09T18:22:55.229Z,32.56
2023-05-09T18:25:57.459Z,32.40
2023-05-09T18:28:59.858Z,32.84
2023-05-09T18:32:02.272Z,32.85
2023-05-09T18:35:05.400Z,33.38
2023-05-09T18:38:07.678Z,33.44
2023-05-09T18:41:11.266Z,33.60
2023-05-09T18:44:13.457Z,33.80
2023-05-09T18:47:15.846Z,33.60
2023-05-09T18:53:21.068Z,34.06
2023-05-09T18:56:26.331Z,34.22
2023-05-09T18:59:28.713Z,34.36
2023-05-09T19:02:31.030Z,34.25
2023-05-09T19:05:33.201Z,34.36
2023-05-09T19:08:35.785Z,34.04
2023-05-09T19:11:56.709Z,34.32
2023-05-09T19:14:58.888Z,34.73
2023-05-09T19:18:01.860Z,34.79
2023-05-09T19:21:04.110Z,34.99
2023-05-09T19:24:06.459Z,35.12
2023-05-09T19:27:10.094Z,35.30
2023-05-09T19:30:17.901Z,35.39
2023-05-09T19:33:20.167Z,35.69
2023-05-09T19:36:22.277Z,36.25
2023-05-09T19:39:24.423Z,36.10
2023-05-09T19:42:26.637Z,36.33
2023-05-09T19:45:28.764Z,36.45
2023-05-09T19:48:30.997Z,36.46
2023-05-09T19:51:33.181Z,36.33
2023-05-09T19:54:35.664Z,36.87
2023-05-09T19:57:37.979Z,36.74
2023-05-09T20:00:40.107Z,36.85
2023-05-09T20:03:52.402Z,37.00
2023-05-09T20:06:54.718Z,37.26
2023-05-09T20:09:56.839Z,36.99
2023-05-09T20:12:59.413Z,37.59
2023-05-09T20:16:03.148Z,37.59
2023-05-09T20:19:08.897Z,37.73
2023-05-09T20:22:11.279Z,37.72
2023-05-09T20:25:13.768Z,37.69
2023-05-09T20:31:36.245Z,37.97
2023-05-09T20:34:38.465Z,38.16
2023-05-09T20:37:40.641Z,38.30
2023-05-09T20:40:43.389Z,38.16
2023-05-09T20:43:45.688Z,38.36
2023-05-09T20:46:47.817Z,37.96
2023-05-09T20:49:55.818Z,38.05
2023-05-09T20:52:59.014Z,38.07
2023-05-09T20:56:04.452Z,38.11
2023-05-09T20:59:06.610Z,38.19
2023-05-09T21:02:08.942Z,38.36
2023-05-09T21:05:11.168Z,38.49
2023-05-09T21:08:13.296Z,38.21
2023-05-09T21:14:34.714Z,38.83
2023-05-09T21:17:37.702Z,39.08
2023-05-09T21:23:56.088Z,39.13
2023-05-09T21:26:58.251Z,39.20
2023-05-09T21:30:00.384Z,39.18
2023-05-09T21:33:03.973Z,39.39
2023-05-09T21:36:07.630Z,39.82
2023-05-09T21:39:10.355Z,39.60
2023-05-09T21:42:12.518Z,39.81
2023-05-09T21:45:14.883Z,39.93
2023-05-09T21:48:17.202Z,39.94
2023-05-09T21:51:19.455Z,39.97
2023-05-09T21:54:21.662Z,40.33
2023-05-09T21:57:23.805Z,40.23
2023-05-09T22:00:26.032Z,40.24
2023-05-09T22:03:28.282Z,40.38
2023-05-09T22:06:33.291Z,40.67
2023-05-09T22:09:35.716Z,40.75
2023-05-09T22:12:38.178Z,40.61
2023-05-09T22:15:40.320Z,40.47
2023-05-09T22:18:43.144Z,40.61
2023-05-09T22:21:45.260Z,40.77
2023-05-09T22:24:47.387Z,40.74
2023-05-09T22:31:06.807Z,41.07
2023-05-09T22:34:08.892Z,40.97
2023-05-09T22:37:11.004Z,40.99
2023-05-09T22:40:13.567Z,41.08
2023-05-09T22:43:16.052Z,41.48
2023-05-09T22:46:18.306Z,41.13
2023-05-09T22:49:20.432Z,41.12
2023-05-09T22:52:22.573Z,41.50
2023-05-09T22:55:24.729Z,41.32
2023-05-09T22:58:27.299Z,41.42
2023-05-09T23:01:29.434Z,41.43
2023-05-09T23:08:43.872Z,41.68
2023-05-09T23:12:05.217Z,41.91
2023-05-09T23:15:08.048Z,41.74
2023-05-09T23:18:10.264Z,41.92
2023-05-09T23:21:12.616Z,41.79
2023-05-09T23:24:14.779Z,41.68
2023-05-09T23:27:17.058Z,41.75
2023-05-09T23:30:22.397Z,41.92
2023-05-09T23:33:24.566Z,42.08
2023-05-09T23:36:26.814Z,42.10
2023-05-09T23:39:29.164Z,42.38
2023-05-09T23:42:31.421Z,42.54
2023-05-09T23:45:33.715Z,42.67
2023-05-09T23:48:35.898Z,42.82
2023-05-09T23:51:38.081Z,42.68
2023-05-09T23:54:40.407Z,43.13
2023-05-09T23:57:42.610Z,42.93
